Time;durP1;ratioP1;P1;durP2;ratioP2;P2;SDS_P1;SDS_P2;PMS_P1;PMS_P2;Temp;Humidity;BMP_temperature;BMP_pressure;BME280_temperature;BME280_humidity;BME280_pressure;Samples;Min_cycle;Max_cycle;Signal;HPM_P1;HPM_P2
2022/05/21 00:01:38;;;;;;;;;;;12.30;99.90;;;;;;5069450;28;19956;-66
2022/05/21 00:04:05;;;;;;;;;;;12.30;99.90;;;;;;5069096;28;20284;-65
2022/05/21 00:06:32;;;;;;;;;;;12.30;99.90;;;;;;5069199;28;20303;-64
2022/05/21 00:08:58;;;;;;;;;;;12.30;99.90;;;;;;5071878;28;19924;-66
2022/05/21 00:11:25;;;;;;;;;;;12.30;99.90;;;;;;5073235;28;19925;-65
2022/05/21 00:13:52;;;;;;;;;;;12.20;99.90;;;;;;5073078;28;19997;-65
2022/05/21 00:16:20;;;;;;;;;;;12.30;99.90;;;;;;5073006;28;19924;-66
2022/05/21 00:18:47;;;;;;;;;;;12.20;99.90;;;;;;5073405;28;19947;-64
2022/05/21 00:21:14;;;;;;;;;;;12.30;99.90;;;;;;5073406;28;19924;-65
2022/05/21 00:23:42;;;;;;;;;;;12.30;99.90;;;;;;5072917;28;19966;-65
2022/05/21 00:26:10;;;;;;;;;;;12.30;99.90;;;;;;5073081;28;20566;-65
2022/05/21 00:28:38;;;;;;;;;;;12.20;99.90;;;;;;5073059;28;20453;-65
2022/05/21 00:31:05;;;;;;;;;;;12.30;99.90;;;;;;5072722;28;19925;-65
2022/05/21 00:33:34;;;;;;;;;;;12.30;99.90;;;;;;5072800;28;19924;-64
2022/05/21 00:36:01;;;;;;;;;;;12.30;99.90;;;;;;5072863;28;19924;-65
2022/05/21 00:38:28;;;;;;;;;;;12.20;99.90;;;;;;5072888;28;20457;-65
2022/05/21 00:40:55;;;;;;;;;;;12.20;99.90;;;;;;5072533;28;19967;-65
2022/05/21 00:43:35;;;;;;;;;;;12.20;99.90;;;;;;5072831;28;19932;-65
2022/05/21 00:46:02;;;;;;;;;;;12.20;99.90;;;;;;5073133;28;19974;-65
2022/05/21 00:48:29;;;;;;;;;;;12.20;99.90;;;;;;5072818;28;19924;-65
2022/05/21 00:50:57;;;;;;;;;;;12.20;99.90;;;;;;5072513;28;19924;-65
2022/05/21 00:53:25;;;;;;;;;;;12.20;99.90;;;;;;5072604;28;19978;-63
2022/05/21 00:55:52;;;;;;;;;;;12.20;99.90;;;;;;5072192;28;19928;-64
2022/05/21 01:01:05;;;;;;;;;;;12.20;99.90;;;;;;5089660;28;19920;-64
2022/05/21 01:03:32;;;;;;;;;;;12.10;99.90;;;;;;5072029;28;20461;-65
2022/05/21 01:06:02;;;;;;;;;;;12.10;99.90;;;;;;5071762;28;19931;-65
2022/05/21 01:08:29;;;;;;;;;;;12.10;99.90;;;;;;5072423;28;20027;-65
2022/05/21 01:10:59;;;;;;;;;;;12.10;99.90;;;;;;5072070;28;20031;-65
2022/05/21 01:13:27;;;;;;;;;;;12.10;99.90;;;;;;5072291;28;19928;-65
2022/05/21 01:15:54;;;;;;;;;;;12.10;99.90;;;;;;5072389;28;19924;-64
2022/05/21 01:18:21;;;;;;;;;;;12.00;99.90;;;;;;5072477;28;20273;-65
2022/05/21 01:20:48;;;;;;;;;;;12.00;99.90;;;;;;5071136;28;19924;-65
2022/05/21 01:23:18;;;;;;;;;;;12.00;99.90;;;;;;5072081;28;19924;-65
2022/05/21 01:25:45;;;;;;;;;;;12.00;99.90;;;;;;5072157;28;19968;-65
2022/05/21 01:28:13;;;;;;;;;;;12.00;99.90;;;;;;5071908;28;19925;-65
2022/05/21 01:30:41;;;;;;;;;;;11.90;99.90;;;;;;5071653;28;19924;-65
2022/05/21 01:33:09;;;;;;;;;;;11.90;99.90;;;;;;5071977;28;19928;-64
2022/05/21 01:35:36;;;;;;;;;;;11.90;99.90;;;;;;5071667;28;19924;-66
2022/05/21 01:38:03;;;;;;;;;;;11.80;99.90;;;;;;5071996;28;19970;-65
2022/05/21 01:40:31;;;;;;;;;;;11.80;99.90;;;;;;5071579;28;19929;-65
2022/05/21 01:45:42;;;;;;;;;;;11.90;99.90;;;;;;5088375;28;19924;-65
2022/05/21 01:48:09;;;;;;;;;;;11.90;99.90;;;;;;5071707;28;19925;-64
2022/05/21 01:50:36;;;;;;;;;;;11.90;99.90;;;;;;5071388;28;19935;-65
2022/05/21 01:53:03;;;;;;;;;;;12.00;99.90;;;;;;5071564;28;19970;-65
2022/05/21 01:55:32;;;;;;;;;;;12.10;99.90;;;;;;5071174;28;19928;-65
2022/05/21 01:57:58;;;;;;;;;;;12.10;99.90;;;;;;5070833;28;19936;-65
2022/05/21 02:00:25;;;;;;;;;;;12.20;99.90;;;;;;5071186;28;20011;-65
2022/05/21 02:02:52;;;;;;;;;;;12.10;99.90;;;;;;5071527;28;20031;-65
2022/05/21 02:05:19;;;;;;;;;;;12.10;99.90;;;;;;5071556;28;19947;-64
2022/05/21 02:07:46;;;;;;;;;;;12.00;99.90;;;;;;5071430;28;19928;-65
2022/05/21 02:10:13;;;;;;;;;;;12.00;99.90;;;;;;5071598;28;19925;-64
2022/05/21 02:12:41;;;;;;;;;;;12.00;99.90;;;;;;5070637;28;19925;-63
2022/05/21 02:15:08;;;;;;;;;;;12.00;99.90;;;;;;5079314;28;19928;-64
2022/05/21 02:17:35;;;;;;;;;;;12.00;99.90;;;;;;5071060;28;19928;-65
2022/05/21 02:20:02;;;;;;;;;;;12.00;99.90;;;;;;5071217;28;19982;-65
2022/05/21 02:22:29;;;;;;;;;;;12.00;99.90;;;;;;5071471;28;19925;-64
2022/05/21 02:24:56;;;;;;;;;;;12.00;99.90;;;;;;5070828;28;19931;-65
2022/05/21 02:27:23;;;;;;;;;;;12.00;99.90;;;;;;5070731;28;20327;-65
2022/05/21 02:29:51;;;;;;;;;;;11.90;99.90;;;;;;5070621;28;19954;-64
2022/05/21 02:32:18;;;;;;;;;;;11.80;99.90;;;;;;5070894;28;20015;-64
2022/05/21 02:34:44;;;;;;;;;;;11.80;99.90;;;;;;5070511;28;19970;-65
2022/05/21 02:39:55;;;;;;;;;;;11.80;99.90;;;;;;5070473;28;19921;-65
2022/05/21 02:45:08;;;;;;;;;;;11.80;99.90;;;;;;5070401;28;20403;-65
2022/05/21 02:47:34;;;;;;;;;;;11.80;99.90;;;;;;5070503;28;20028;-66
2022/05/21 02:50:01;;;;;;;;;;;11.90;99.90;;;;;;5070135;28;19929;-65
2022/05/21 02:52:29;;;;;;;;;;;12.00;99.90;;;;;;5070147;28;20392;-66
2022/05/21 02:54:56;;;;;;;;;;;12.00;99.90;;;;;;5070303;28;20388;-65
2022/05/21 02:57:23;;;;;;;;;;;12.00;99.90;;;;;;5070394;28;19931;-65
2022/05/21 02:59:50;;;;;;;;;;;12.10;99.90;;;;;;5070064;28;19928;-66
2022/05/21 03:02:18;;;;;;;;;;;12.00;99.90;;;;;;5070612;28;19947;-65
2022/05/21 03:04:45;;;;;;;;;;;12.10;99.90;;;;;;5069854;28;20277;-65
2022/05/21 03:07:12;;;;;;;;;;;12.10;99.90;;;;;;5069908;28;19929;-66
2022/05/21 03:12:23;;;;;;;;;;;12.00;99.90;;;;;;5070166;28;19921;-65
2022/05/21 03:14:50;;;;;;;;;;;12.00;99.90;;;;;;5069880;28;19939;-64
2022/05/21 03:17:17;;;;;;;;;;;12.00;99.90;;;;;;5069998;28;19925;-65
2022/05/21 03:19:45;;;;;;;;;;;12.00;99.90;;;;;;5069793;28;19978;-65
2022/05/21 03:22:12;;;;;;;;;;;11.90;99.90;;;;;;5069914;28;19986;-65
2022/05/21 03:24:39;;;;;;;;;;;11.80;99.90;;;;;;5069722;28;19935;-65
2022/05/21 03:27:07;;;;;;;;;;;11.90;99.90;;;;;;5069878;28;19925;-65
2022/05/21 03:29:34;;;;;;;;;;;11.90;99.90;;;;;;5069509;28;19928;-65
2022/05/21 03:32:01;;;;;;;;;;;11.80;99.90;;;;;;5070111;28;20011;-66
2022/05/21 03:34:28;;;;;;;;;;;11.90;99.90;;;;;;5069683;28;20307;-65
2022/05/21 03:36:57;;;;;;;;;;;11.90;99.90;;;;;;5069852;28;19978;-65
2022/05/21 03:39:24;;;;;;;;;;;12.00;99.90;;;;;;5069449;28;19931;-65
2022/05/21 03:41:50;;;;;;;;;;;12.10;99.90;;;;;;5070026;28;19931;-65
2022/05/21 03:44:19;;;;;;;;;;;12.20;99.90;;;;;;5075054;28;20445;-64
2022/05/21 03:46:46;;;;;;;;;;;12.30;99.90;;;;;;5076410;28;19924;-65
2022/05/21 03:49:12;;;;;;;;;;;12.20;99.90;;;;;;5076353;28;19928;-65
2022/05/21 03:51:39;;;;;;;;;;;12.30;99.90;;;;;;5076416;28;19924;-64
2022/05/21 03:54:07;;;;;;;;;;;12.30;99.90;;;;;;5076128;28;19928;-66
2022/05/21 03:56:34;;;;;;;;;;;12.40;99.90;;;;;;5076226;28;20350;-65
2022/05/21 03:59:01;;;;;;;;;;;12.40;99.90;;;;;;5076083;28;19924;-65
2022/05/21 04:01:28;;;;;;;;;;;12.40;99.90;;;;;;5076314;28;19928;-65
2022/05/21 04:03:56;;;;;;;;;;;12.50;99.90;;;;;;5076025;28;19924;-65
2022/05/21 04:06:22;;;;;;;;;;;12.50;99.90;;;;;;5076212;28;19939;-65
2022/05/21 04:08:52;;;;;;;;;;;12.50;99.90;;;;;;5076042;28;20304;-65
2022/05/21 04:11:20;;;;;;;;;;;12.50;99.90;;;;;;5076489;28;19946;-65
2022/05/21 04:13:47;;;;;;;;;;;12.60;99.90;;;;;;5076046;28;19924;-66
2022/05/21 04:16:13;;;;;;;;;;;12.60;99.90;;;;;;5076147;28;19928;-64
2022/05/21 04:18:40;;;;;;;;;;;12.50;99.90;;;;;;5076245;28;19970;-65
2022/05/21 04:21:07;;;;;;;;;;;12.60;99.90;;;;;;5075907;28;19924;-65
2022/05/21 04:23:34;;;;;;;;;;;12.60;99.90;;;;;;5075767;28;20361;-65
2022/05/21 04:26:01;;;;;;;;;;;12.60;99.90;;;;;;5076287;28;19970;-65
2022/05/21 04:28:31;;;;;;;;;;;12.60;99.90;;;;;;5076405;28;19928;-65
2022/05/21 04:30:58;;;;;;;;;;;12.60;99.90;;;;;;5076088;28;19931;-64
2022/05/21 04:33:24;;;;;;;;;;;12.60;99.90;;;;;;5075927;28;19924;-64
2022/05/21 04:38:36;;;;;;;;;;;12.70;99.90;;;;;;5075832;28;19936;-63
2022/05/21 04:41:02;;;;;;;;;;;12.70;99.90;;;;;;5075803;28;20384;-65
2022/05/21 04:43:31;;;;;;;;;;;12.70;99.90;;;;;;5077112;28;19924;-65
2022/05/21 04:45:58;;;;;;;;;;;12.70;99.90;;;;;;5075737;28;19924;-64
2022/05/21 04:48:24;;;;;;;;;;;12.80;99.90;;;;;;5075627;28;20323;-65
2022/05/21 04:50:51;;;;;;;;;;;12.80;99.90;;;;;;5075457;28;19924;-65
2022/05/21 04:53:18;;;;;;;;;;;12.80;99.90;;;;;;5075816;28;19978;-64
2022/05/21 04:55:45;;;;;;;;;;;12.80;99.90;;;;;;5071637;28;19962;-65
2022/05/21 04:58:11;;;;;;;;;;;12.80;99.90;;;;;;5072589;28;19978;-65
2022/05/21 05:00:40;;;;;;;;;;;12.80;99.90;;;;;;5072251;28;19929;-65
2022/05/21 05:03:10;;;;;;;;;;;12.70;99.90;;;;;;5068335;28;20302;-65
2022/05/21 05:05:38;;;;;;;;;;;12.80;99.90;;;;;;5067129;28;19928;-65
2022/05/21 05:08:05;;;;;;;;;;;12.80;99.90;;;;;;5067943;28;19924;-65
2022/05/21 05:10:32;;;;;;;;;;;12.80;99.90;;;;;;5072020;28;19931;-65
2022/05/21 05:12:59;;;;;;;;;;;12.80;99.90;;;;;;5072511;28;19938;-65
2022/05/21 05:15:26;;;;;;;;;;;12.80;99.90;;;;;;5072234;28;19924;-65
2022/05/21 05:17:59;;;;;;;;;;;12.70;99.90;;;;;;5072399;28;19987;-64
2022/05/21 05:20:26;;;;;;;;;;;12.80;99.90;;;;;;5073447;28;19928;-65
2022/05/21 05:22:53;;;;;;;;;;;12.80;99.90;;;;;;5069302;28;19933;-64
2022/05/21 05:25:20;;;;;;;;;;;12.80;99.90;;;;;;5071026;28;19928;-66
2022/05/21 05:27:48;;;;;;;;;;;12.80;99.90;;;;;;5071757;28;19924;-65
2022/05/21 05:30:15;;;;;;;;;;;12.80;99.90;;;;;;5071943;28;19960;-67
2022/05/21 05:32:41;;;;;;;;;;;12.80;99.90;;;;;;5071978;28;20333;-62
2022/05/21 05:35:10;;;;;;;;;;;12.90;99.90;;;;;;5071854;28;19925;-64
2022/05/21 05:37:37;;;;;;;;;;;12.90;99.90;;;;;;5071552;28;19932;-64
2022/05/21 05:40:05;;;;;;;;;;;12.90;99.90;;;;;;5071566;28;19925;-64
2022/05/21 05:42:32;;;;;;;;;;;13.00;99.90;;;;;;5088738;28;19929;-63
2022/05/21 05:44:59;;;;;;;;;;;13.10;99.90;;;;;;5071756;28;19929;-64
2022/05/21 05:47:27;;;;;;;;;;;13.20;99.90;;;;;;5071516;28;19954;-64
2022/05/21 05:49:54;;;;;;;;;;;13.20;99.90;;;;;;5071484;28;20053;-64
2022/05/21 05:52:22;;;;;;;;;;;13.20;99.90;;;;;;5071906;28;20328;-64
2022/05/21 05:54:49;;;;;;;;;;;13.30;99.90;;;;;;5071211;28;19986;-64
2022/05/21 05:57:16;;;;;;;;;;;13.30;99.90;;;;;;5071549;28;20341;-63
2022/05/21 05:59:51;;;;;;;;;;;13.20;99.90;;;;;;5071023;28;20410;-64
2022/05/21 06:05:03;;;;;;;;;;;13.40;99.90;;;;;;5087930;28;19955;-64
2022/05/21 06:07:32;;;;;;;;;;;13.50;99.90;;;;;;5087847;28;19925;-64
2022/05/21 06:10:03;;;;;;;;;;;13.50;99.90;;;;;;5087849;28;19932;-64
2022/05/21 06:12:31;;;;;;;;;;;13.70;99.90;;;;;;5071190;28;19924;-64
2022/05/21 06:14:58;;;;;;;;;;;13.70;99.90;;;;;;5071103;28;19958;-64
2022/05/21 06:17:25;;;;;;;;;;;13.70;99.90;;;;;;5071272;28;19978;-64
2022/05/21 06:19:52;;;;;;;;;;;13.70;99.90;;;;;;5070816;28;19928;-64
2022/05/21 06:22:19;;;;;;;;;;;13.70;99.90;;;;;;5070981;28;20380;-64
2022/05/21 06:24:47;;;;;;;;;;;13.80;99.90;;;;;;5070457;28;20338;-65
2022/05/21 06:27:14;;;;;;;;;;;13.80;99.90;;;;;;5071126;28;20452;-65
2022/05/21 06:29:40;;;;;;;;;;;13.80;99.90;;;;;;5070533;28;19940;-66
2022/05/21 06:32:08;;;;;;;;;;;13.80;99.90;;;;;;5070830;28;19956;-65
2022/05/21 06:34:37;;;;;;;;;;;13.90;99.90;;;;;;5070469;28;19932;-65
2022/05/21 06:37:04;;;;;;;;;;;14.00;99.90;;;;;;5070492;28;19928;-66
2022/05/21 06:39:31;;;;;;;;;;;14.00;99.90;;;;;;5070300;28;19931;-64
2022/05/21 06:42:00;;;;;;;;;;;14.10;99.90;;;;;;5071149;28;19925;-63
2022/05/21 06:44:28;;;;;;;;;;;14.10;99.90;;;;;;5070352;28;19924;-64
2022/05/21 06:46:54;;;;;;;;;;;14.10;99.90;;;;;;5068767;28;19936;-64
2022/05/21 06:49:21;;;;;;;;;;;14.20;99.90;;;;;;5068215;28;19925;-65
2022/05/21 06:51:48;;;;;;;;;;;14.30;99.90;;;;;;5069316;28;20296;-65
2022/05/21 06:54:17;;;;;;;;;;;14.40;99.90;;;;;;5072457;28;20335;-63
2022/05/21 06:56:44;;;;;;;;;;;14.50;99.90;;;;;;5050691;28;19925;-65
2022/05/21 06:59:12;;;;;;;;;;;14.30;99.90;;;;;;5066783;28;19929;-65
2022/05/21 07:01:40;;;;;;;;;;;14.40;99.90;;;;;;5067013;28;19929;-65
2022/05/21 07:04:08;;;;;;;;;;;14.30;99.90;;;;;;5066678;28;19956;-64
2022/05/21 07:09:21;;;;;;;;;;;14.50;99.90;;;;;;5050219;28;19925;-64
2022/05/21 07:11:48;;;;;;;;;;;14.50;99.90;;;;;;5078576;28;19964;-64
2022/05/21 07:14:16;;;;;;;;;;;14.50;99.90;;;;;;5069951;28;20342;-65
2022/05/21 07:16:43;;;;;;;;;;;14.70;99.90;;;;;;5070140;28;19936;-64
2022/05/21 07:19:09;;;;;;;;;;;14.90;99.90;;;;;;5069227;28;21047;-65
2022/05/21 07:21:37;;;;;;;;;;;14.90;99.90;;;;;;5070484;28;19967;-64
2022/05/21 07:24:04;;;;;;;;;;;14.90;99.90;;;;;;5069826;28;19924;-64
2022/05/21 07:26:30;;;;;;;;;;;14.70;99.90;;;;;;5086843;28;19924;-65
2022/05/21 07:28:58;;;;;;;;;;;14.60;99.90;;;;;;5069807;28;19928;-65
2022/05/21 07:31:27;;;;;;;;;;;14.90;99.90;;;;;;5069930;28;19960;-64
2022/05/21 07:33:53;;;;;;;;;;;15.10;99.90;;;;;;5069439;28;20373;-63
2022/05/21 07:36:20;;;;;;;;;;;15.10;99.90;;;;;;5086582;28;19932;-65
2022/05/21 07:38:47;;;;;;;;;;;15.00;99.90;;;;;;5069692;28;19925;-62
2022/05/21 07:41:14;;;;;;;;;;;15.00;99.90;;;;;;5086834;28;19929;-63
2022/05/21 07:43:40;;;;;;;;;;;15.00;99.90;;;;;;5069811;28;19928;-64
2022/05/21 07:46:08;;;;;;;;;;;15.10;99.90;;;;;;5069670;28;20323;-69
2022/05/21 07:48:36;;;;;;;;;;;15.10;99.90;;;;;;5069588;28;20310;-65
2022/05/21 07:51:03;;;;;;;;;;;15.00;99.90;;;;;;5086380;28;19928;-64
2022/05/21 07:53:32;;;;;;;;;;;15.30;99.90;;;;;;5069512;28;20446;-65
2022/05/21 07:55:59;;;;;;;;;;;15.50;99.90;;;;;;5069769;28;19936;-65
2022/05/21 07:58:27;;;;;;;;;;;15.40;99.90;;;;;;5069466;28;19982;-64
2022/05/21 08:00:54;;;;;;;;;;;15.50;99.90;;;;;;5086587;28;19929;-65
2022/05/21 08:03:22;;;;;;;;;;;15.70;99.90;;;;;;5086444;28;19924;-65
2022/05/21 08:05:50;;;;;;;;;;;15.80;99.90;;;;;;5087091;28;19932;-65
2022/05/21 08:08:17;;;;;;;;;;;15.80;99.90;;;;;;5086146;28;19925;-66
2022/05/21 08:10:45;;;;;;;;;;;16.00;99.90;;;;;;5069254;28;19924;-66
2022/05/21 08:13:12;;;;;;;;;;;15.90;99.90;;;;;;5069384;28;20457;-65
2022/05/21 08:15:40;;;;;;;;;;;15.70;99.90;;;;;;5067915;28;19928;-65
2022/05/21 08:18:07;;;;;;;;;;;15.70;99.90;;;;;;5070235;28;19939;-66
2022/05/21 08:20:33;;;;;;;;;;;15.80;99.90;;;;;;5070212;28;20358;-66
2022/05/21 08:28:32;;;;;;;;;;;15.90;99.90;;;;;;5087323;28;19921;-65
2022/05/21 08:30:59;;;;;;;;;;;15.90;99.90;;;;;;5073620;28;20303;-66
2022/05/21 08:33:27;;;;;;;;;;;15.90;99.90;;;;;;5074147;28;19924;-65
2022/05/21 08:35:53;;;;;;;;;;;15.70;99.90;;;;;;5074204;28;19968;-66
2022/05/21 08:38:22;;;;;;;;;;;15.70;99.90;;;;;;5072843;28;20281;-66
2022/05/21 08:40:54;;;;;;;;;;;15.80;99.90;;;;;;5072522;28;19924;-66
2022/05/21 08:43:23;;;;;;;;;;;16.10;99.90;;;;;;5073705;28;19924;-66
2022/05/21 08:45:58;;;;;;;;;;;16.40;99.90;;;;;;5073610;28;20413;-66
2022/05/21 08:48:25;;;;;;;;;;;16.40;99.90;;;;;;5073476;28;19928;-66
2022/05/21 08:50:54;;;;;;;;;;;16.40;99.90;;;;;;5072805;28;20346;-66
2022/05/21 08:53:25;;;;;;;;;;;16.30;99.90;;;;;;5073907;28;19928;-66
2022/05/21 08:55:53;;;;;;;;;;;16.20;99.90;;;;;;5073326;28;20009;-66
2022/05/21 08:58:23;;;;;;;;;;;16.20;99.90;;;;;;5074459;28;19954;-66
2022/05/21 09:00:50;;;;;;;;;;;16.40;99.90;;;;;;5072718;28;19925;-65
2022/05/21 09:03:17;;;;;;;;;;;16.70;99.90;;;;;;5067697;28;20303;-67
2022/05/21 09:05:46;;;;;;;;;;;16.60;99.90;;;;;;5071784;28;19924;-65
2022/05/21 09:08:16;;;;;;;;;;;16.60;99.90;;;;;;5072610;28;19924;-66
2022/05/21 09:10:50;;;;;;;;;;;16.70;99.90;;;;;;5071326;28;20409;-66
2022/05/21 09:13:20;;;;;;;;;;;17.00;99.90;;;;;;5072114;28;20373;-66
2022/05/21 09:18:31;;;;;;;;;;;16.70;99.90;;;;;;5088898;28;19920;-66
2022/05/21 09:20:59;;;;;;;;;;;16.60;99.90;;;;;;5089100;28;19977;-66
2022/05/21 09:23:26;;;;;;;;;;;16.60;99.90;;;;;;5072299;28;19940;-66
2022/05/21 09:26:14;;;;;;;;;;;16.70;99.90;;;;;;5072173;28;19974;-66
2022/05/21 09:28:42;;;;;;;;;;;17.00;99.90;;;;;;5068232;28;19968;-66
2022/05/21 09:31:10;;;;;;;;;;;17.10;99.90;;;;;;5071909;28;19985;-67
2022/05/21 09:33:37;;;;;;;;;;;17.30;99.90;;;;;;5071832;28;19924;-67
2022/05/21 09:36:05;;;;;;;;;;;17.40;99.90;;;;;;5071953;28;19929;-66
2022/05/21 09:38:32;;;;;;;;;;;17.40;99.90;;;;;;5072048;28;19924;-66
2022/05/21 09:41:05;;;;;;;;;;;17.40;99.90;;;;;;5071080;28;20053;-66
2022/05/21 09:46:21;;;;;;;;;;;17.50;99.90;;;;;;5088622;28;19943;-66
2022/05/21 09:48:49;;;;;;;;;;;17.60;99.90;;;;;;5088202;28;19936;-66
2022/05/21 09:51:24;;;;;;;;;;;17.80;99.90;;;;;;5071588;28;19928;-67
2022/05/21 09:53:51;;;;;;;;;;;18.20;99.90;;;;;;5071110;28;19924;-67
2022/05/21 09:56:18;;;;;;;;;;;18.20;99.90;;;;;;5071725;28;19928;-67
2022/05/21 09:58:47;;;;;;;;;;;18.10;99.90;;;;;;5088171;28;20404;-67
2022/05/21 10:01:14;;;;;;;;;;;18.10;99.90;;;;;;5088198;28;19924;-68
2022/05/21 10:03:46;;;;;;;;;;;18.20;99.90;;;;;;5087587;28;19924;-67
2022/05/21 10:06:25;;;;;;;;;;;18.10;99.90;;;;;;5071383;28;19924;-67
2022/05/21 10:11:44;;;;;;;;;;;17.90;99.90;;;;;;5078539;28;20299;-67
2022/05/21 10:14:15;;;;;;;;;;;18.00;99.90;;;;;;5070690;28;19928;-67
2022/05/21 10:16:46;;;;;;;;;;;18.00;99.90;;;;;;5070999;28;19925;-67
2022/05/21 10:19:17;;;;;;;;;;;18.20;99.90;;;;;;5071172;28;19924;-67
2022/05/21 10:21:53;;;;;;;;;;;18.30;99.90;;;;;;5071204;28;19925;-67
2022/05/21 10:24:21;;;;;;;;;;;18.10;99.90;;;;;;5070835;28;20302;-67
2022/05/21 10:26:53;;;;;;;;;;;18.00;99.90;;;;;;5070978;28;20031;-67
2022/05/21 10:29:35;;;;;;;;;;;17.90;99.90;;;;;;5070697;28;19928;-67
2022/05/21 10:32:09;;;;;;;;;;;18.20;99.90;;;;;;5070996;28;19925;-67
2022/05/21 10:34:45;;;;;;;;;;;18.30;99.90;;;;;;5070519;28;20307;-67
2022/05/21 10:37:20;;;;;;;;;;;18.20;99.90;;;;;;5071634;28;20369;-66
2022/05/21 10:40:07;;;;;;;;;;;18.10;99.90;;;;;;5070754;28;19978;-66
2022/05/21 10:42:51;;;;;;;;;;;18.00;99.90;;;;;;5070648;28;20300;-67
2022/05/21 10:45:21;;;;;;;;;;;18.00;99.90;;;;;;5070120;28;19925;-67
2022/05/21 10:48:06;;;;;;;;;;;18.30;99.90;;;;;;5070776;28;19952;-67
2022/05/21 10:50:36;;;;;;;;;;;18.30;99.90;;;;;;5069689;28;19925;-68
2022/05/21 10:53:21;;;;;;;;;;;18.40;99.90;;;;;;5069653;28;19928;-67
2022/05/21 10:55:55;;;;;;;;;;;18.70;99.90;;;;;;5069726;28;19931;-67
2022/05/21 10:58:47;;;;;;;;;;;18.50;99.90;;;;;;5070709;28;19925;-67
2022/05/21 11:01:15;;;;;;;;;;;18.80;99.90;;;;;;5070522;28;19974;-67
2022/05/21 11:04:01;;;;;;;;;;;19.10;99.90;;;;;;5070415;28;19925;-66
2022/05/21 11:06:34;;;;;;;;;;;19.50;99.90;;;;;;5057626;28;20396;-66
2022/05/21 11:09:06;;;;;;;;;;;19.60;99.90;;;;;;5070295;28;20357;-66
2022/05/21 11:11:38;;;;;;;;;;;19.80;99.90;;;;;;5070402;28;20027;-67
2022/05/21 11:14:08;;;;;;;;;;;19.70;99.90;;;;;;5070158;28;19928;-67
2022/05/21 11:16:40;;;;;;;;;;;19.20;99.90;;;;;;5070403;28;19924;-67
2022/05/21 11:19:10;;;;;;;;;;;19.60;99.90;;;;;;5087021;28;20454;-67
2022/05/21 11:21:41;;;;;;;;;;;20.00;99.90;;;;;;5087135;28;19929;-67
2022/05/21 11:24:13;;;;;;;;;;;20.20;99.90;;;;;;5069854;28;19947;-65
2022/05/21 11:26:43;;;;;;;;;;;20.30;99.90;;;;;;5070081;28;19932;-65
2022/05/21 11:29:12;;;;;;;;;;;20.20;99.90;;;;;;5069796;28;19925;-65
2022/05/21 11:37:29;;;;;;;;;;;19.40;99.90;;;;;;5065631;28;19924;-65
2022/05/21 11:39:57;;;;;;;;;;;20.60;99.90;;;;;;5069366;28;20023;-65
2022/05/21 11:42:24;;;;;;;;;;;20.70;99.90;;;;;;5069890;28;19924;-66
2022/05/21 11:45:02;;;;;;;;;;;20.60;99.90;;;;;;5086331;28;19974;-66
2022/05/21 11:47:35;;;;;;;;;;;21.10;99.90;;;;;;5086562;28;19931;-65
2022/05/21 11:50:10;;;;;;;;;;;22.50;99.90;;;;;;5069430;28;20400;-66
2022/05/21 11:52:55;;;;;;;;;;;23.50;99.90;;;;;;5069903;28;19924;-66
2022/05/21 11:55:25;;;;;;;;;;;23.70;99.90;;;;;;5069646;28;19928;-66
2022/05/21 11:57:53;;;;;;;;;;;23.50;99.90;;;;;;5069951;28;19929;-65
2022/05/21 12:00:39;;;;;;;;;;;23.60;99.90;;;;;;5069538;28;20292;-65
2022/05/21 12:03:25;;;;;;;;;;;23.70;99.90;;;;;;5069887;28;19991;-66
2022/05/21 12:05:56;;;;;;;;;;;23.70;99.90;;;;;;5073300;28;19928;-66
2022/05/21 12:08:36;;;;;;;;;;;23.00;99.90;;;;;;5090472;28;19931;-66
2022/05/21 12:11:05;;;;;;;;;;;23.40;99.90;;;;;;5073230;28;20019;-65
2022/05/21 12:13:49;;;;;;;;;;;22.10;99.90;;;;;;5073469;28;19954;-64
2022/05/21 12:16:34;;;;;;;;;;;21.30;99.90;;;;;;5073451;28;19924;-66
2022/05/21 12:19:02;;;;;;;;;;;22.10;99.90;;;;;;5073129;28;19929;-65
2022/05/21 12:21:47;;;;;;;;;;;23.60;99.90;;;;;;5073279;28;19994;-66
2022/05/21 12:24:29;;;;;;;;;;;24.20;99.90;;;;;;5073132;28;19924;-66
2022/05/21 12:27:03;;;;;;;;;;;23.70;99.90;;;;;;5072701;28;19929;-65
2022/05/21 12:29:32;;;;;;;;;;;22.90;99.90;;;;;;5072845;28;19925;-66
2022/05/21 12:32:00;;;;;;;;;;;22.50;99.90;;;;;;5073288;28;19924;-66
2022/05/21 12:34:54;;;;;;;;;;;23.00;99.90;;;;;;5072827;28;19924;-66
2022/05/21 12:37:23;;;;;;;;;;;23.80;99.90;;;;;;5073221;28;20317;-66
2022/05/21 12:39:57;;;;;;;;;;;24.90;99.90;;;;;;5072858;28;19925;-66
2022/05/21 12:42:31;;;;;;;;;;;25.60;99.90;;;;;;5073149;28;20311;-66
2022/05/21 12:44:57;;;;;;;;;;;24.20;99.90;;;;;;5072469;28;19936;-66
2022/05/21 12:47:27;;;;;;;;;;;23.60;99.90;;;;;;5072836;28;19925;-65
2022/05/21 12:49:54;;;;;;;;;;;24.00;99.90;;;;;;5072556;28;19925;-65
2022/05/21 12:52:23;;;;;;;;;;;24.20;99.90;;;;;;5072515;28;19933;-65
2022/05/21 12:54:50;;;;;;;;;;;25.10;99.90;;;;;;5072349;28;19940;-66
2022/05/21 12:57:19;;;;;;;;;;;26.50;99.90;;;;;;5072683;28;19924;-66
2022/05/21 12:59:47;;;;;;;;;;;27.50;99.90;;;;;;5072414;28;20519;-66
2022/05/21 13:02:16;;;;;;;;;;;27.10;99.90;;;;;;5072647;28;19925;-66
2022/05/21 13:04:45;;;;;;;;;;;27.10;99.90;;;;;;5072215;28;19924;-66
2022/05/21 13:07:13;;;;;;;;;;;26.20;99.90;;;;;;5072580;28;20004;-66
2022/05/21 13:09:50;;;;;;;;;;;25.60;99.90;;;;;;5071978;28;19970;-66
2022/05/21 13:12:17;;;;;;;;;;;26.90;99.90;;;;;;5072295;28;20206;-66
2022/05/21 13:14:45;;;;;;;;;;;26.60;99.90;;;;;;5072319;28;20034;-65
2022/05/21 13:17:20;;;;;;;;;;;24.90;99.90;;;;;;5088005;28;20031;-66
2022/05/21 13:19:57;;;;;;;;;;;23.80;99.90;;;;;;5072292;28;19929;-66
2022/05/21 13:22:29;;;;;;;;;;;22.70;99.90;;;;;;5089163;28;19924;-66
2022/05/21 13:24:59;;;;;;;;;;;22.20;99.90;;;;;;5088688;28;20292;-66
2022/05/21 13:27:26;;;;;;;;;;;22.10;99.90;;;;;;5088952;28;19924;-66
2022/05/21 13:29:53;;;;;;;;;;;21.90;99.90;;;;;;5071793;28;20400;-66
2022/05/21 13:32:24;;;;;;;;;;;21.80;99.90;;;;;;5072551;28;20416;-69
2022/05/21 13:34:52;;;;;;;;;;;21.70;99.90;;;;;;5071633;28;20415;-68
2022/05/21 13:37:27;;;;;;;;;;;21.70;99.90;;;;;;5071757;28;20308;-68
2022/05/21 13:40:00;;;;;;;;;;;21.70;99.90;;;;;;5088483;28;19924;-68
2022/05/21 13:42:28;;;;;;;;;;;21.50;99.90;;;;;;5071801;28;19928;-68
2022/05/21 13:44:59;;;;;;;;;;;22.00;99.90;;;;;;5088238;28;19928;-66
2022/05/21 13:47:32;;;;;;;;;;;24.00;99.90;;;;;;5071745;28;19924;-66
2022/05/21 13:49:59;;;;;;;;;;;25.30;99.90;;;;;;5071526;28;20434;-65
2022/05/21 13:52:26;;;;;;;;;;;25.00;99.90;;;;;;5071786;28;19924;-65
2022/05/21 13:54:55;;;;;;;;;;;25.30;99.90;;;;;;5071453;28;20020;-66
2022/05/21 13:57:24;;;;;;;;;;;26.20;99.90;;;;;;5088366;28;19925;-65
2022/05/21 13:59:53;;;;;;;;;;;27.30;99.90;;;;;;5071403;28;19925;-66
2022/05/21 14:02:23;;;;;;;;;;;27.60;99.90;;;;;;5071349;28;20345;-66
2022/05/21 14:04:54;;;;;;;;;;;28.10;99.90;;;;;;5071051;28;20015;-66
2022/05/21 14:07:22;;;;;;;;;;;26.60;99.90;;;;;;5088253;28;19963;-67
2022/05/21 14:09:50;;;;;;;;;;;25.70;99.90;;;;;;5087910;28;19932;-66
2022/05/21 14:12:24;;;;;;;;;;;25.50;99.90;;;;;;5071165;28;19924;-66
2022/05/21 14:14:51;;;;;;;;;;;26.20;99.90;;;;;;5070959;28;19925;-67
2022/05/21 14:17:25;;;;;;;;;;;26.60;99.90;;;;;;5069638;28;20349;-66
2022/05/21 14:20:12;;;;;;;;;;;26.60;99.90;;;;;;5070712;28;19925;-66
2022/05/21 14:22:41;;;;;;;;;;;26.40;99.90;;;;;;5061879;28;20031;-65
2022/05/21 14:25:20;;;;;;;;;;;26.10;99.90;;;;;;5070999;28;19925;-66
2022/05/21 14:27:57;;;;;;;;;;;25.50;99.90;;;;;;5087725;28;19925;-65
2022/05/21 14:30:32;;;;;;;;;;;25.20;99.90;;;;;;5070744;28;19924;-66
2022/05/21 14:33:09;;;;;;;;;;;25.70;99.90;;;;;;5087654;28;20295;-66
2022/05/21 14:35:36;;;;;;;;;;;25.40;99.90;;;;;;5087766;28;19925;-66
2022/05/21 14:38:04;;;;;;;;;;;25.20;99.90;;;;;;5087781;28;19924;-65
2022/05/21 14:40:32;;;;;;;;;;;24.60;99.90;;;;;;5070591;28;19924;-65
2022/05/21 14:43:03;;;;;;;;;;;23.80;99.90;;;;;;5087550;28;19928;-66
2022/05/21 14:45:31;;;;;;;;;;;23.30;99.90;;;;;;5087649;28;19977;-66
2022/05/21 14:47:57;;;;;;;;;;;23.00;99.90;;;;;;5087589;28;19925;-65
2022/05/21 14:53:12;;;;;;;;;;;22.80;99.90;;;;;;5071994;28;19955;-65
2022/05/21 14:55:39;;;;;;;;;;;22.80;99.90;;;;;;5070471;28;20391;-64
2022/05/21 14:58:06;;;;;;;;;;;22.60;99.90;;;;;;5071140;28;19928;-65
2022/05/21 15:00:33;;;;;;;;;;;22.80;99.90;;;;;;5070571;28;19924;-66
2022/05/21 15:03:00;;;;;;;;;;;22.80;99.90;;;;;;5070717;28;20372;-66
2022/05/21 15:05:30;;;;;;;;;;;23.40;99.90;;;;;;5087191;28;20280;-66
2022/05/21 15:07:58;;;;;;;;;;;23.20;99.90;;;;;;5070311;28;19924;-66
2022/05/21 15:10:26;;;;;;;;;;;23.40;99.90;;;;;;5070531;28;19932;-65
2022/05/21 15:12:53;;;;;;;;;;;23.10;99.90;;;;;;5070565;28;19925;-66